Time;durP1;ratioP1;P1;durP2;ratioP2;P2;SDS_P1;SDS_P2;PMS_P1;PMS_P2;Temp;Humidity;BMP_temperature;BMP_pressure;BME280_temperature;BME280_humidity;BME280_pressure;Samples;Min_cycle;Max_cycle;Signal;HPM_P1;HPM_P2
2021/10/01 00:01:18;;;;;;;1.60;1.50;;;6.80;99.90;;;;;;4979347;28;20043;-86
2021/10/01 00:03:44;;;;;;;4.63;1.95;;;6.80;99.90;;;;;;4993812;28;20511;-86
2021/10/01 00:06:10;;;;;;;2.83;1.73;;;6.70;99.90;;;;;;4994067;28;20109;-85
2021/10/01 00:08:36;;;;;;;3.25;1.67;;;6.70;99.90;;;;;;4983473;28;20117;-86
2021/10/01 00:11:02;;;;;;;1.67;1.58;;;6.70;99.90;;;;;;4994326;28;20433;-87
2021/10/01 00:13:28;;;;;;;2.03;1.67;;;6.70;99.90;;;;;;4998117;28;20906;-86
2021/10/01 00:15:54;;;;;;;2.15;1.95;;;6.70;99.90;;;;;;4997066;28;20049;-86
2021/10/01 00:18:20;;;;;;;2.78;2.00;;;6.60;99.90;;;;;;5014336;28;20057;-86
2021/10/01 00:20:46;;;;;;;8.70;2.55;;;6.60;99.90;;;;;;4995682;28;20542;-86
2021/10/01 00:23:11;;;;;;;2.03;1.83;;;6.60;99.90;;;;;;4984355;28;20065;-86
2021/10/01 00:25:37;;;;;;;2.40;2.00;;;6.60;99.90;;;;;;5014907;28;20038;-88
2021/10/01 00:28:03;;;;;;;3.63;2.03;;;6.60;99.90;;;;;;4998066;28;20026;-86
2021/10/01 00:30:29;;;;;;;2.50;2.00;;;6.50;99.90;;;;;;4976023;28;20069;-85
2021/10/01 00:32:55;;;;;;;2.28;1.92;;;6.50;99.90;;;;;;4994681;28;20522;-86
2021/10/01 00:35:21;;;;;;;4.20;2.35;;;6.50;99.90;;;;;;4993584;28;20129;-87
2021/10/01 00:37:47;;;;;;;3.58;2.35;;;6.50;99.90;;;;;;5014393;28;20473;-86
2021/10/01 00:40:13;;;;;;;2.45;2.00;;;6.50;99.90;;;;;;4995597;28;20030;-86
2021/10/01 00:42:39;;;;;;;4.88;2.13;;;6.50;99.90;;;;;;4992090;28;20033;-87
2021/10/01 00:45:06;;;;;;;1.63;1.52;;;6.50;99.90;;;;;;4994114;28;20030;-86
2021/10/01 00:47:31;;;;;;;6.38;2.20;;;6.40;99.90;;;;;;4997666;28;20065;-85
2021/10/01 00:49:57;;;;;;;2.80;1.90;;;6.40;99.90;;;;;;4983710;28;20324;-86
2021/10/01 00:52:24;;;;;;;2.65;2.05;;;6.40;99.90;;;;;;4996789;28;20030;-87
2021/10/01 00:54:49;;;;;;;2.35;2.10;;;6.40;99.90;;;;;;4978205;28;20038;-87
2021/10/01 00:57:15;;;;;;;2.97;2.25;;;6.40;99.90;;;;;;4995773;28;20041;-86
2021/10/01 00:59:42;;;;;;;4.20;2.33;;;6.40;99.90;;;;;;4973922;28;20408;-87
2021/10/01 01:02:07;;;;;;;3.72;2.20;;;6.30;99.90;;;;;;4988256;28;20502;-84
2021/10/01 01:04:34;;;;;;;4.38;2.15;;;6.30;99.90;;;;;;4993691;28;20030;-87
2021/10/01 01:07:29;;;;;;;3.70;2.60;;;6.30;99.90;;;;;;5004648;28;20045;-87
2021/10/01 01:10:20;;;;;;;2.60;2.10;;;6.30;99.90;;;;;;5021882;28;20042;-86
2021/10/01 01:13:04;;;;;;;3.20;2.20;;;6.30;99.90;;;;;;4995180;28;20025;-85
2021/10/01 01:15:37;;;;;;;2.75;2.30;;;6.30;99.90;;;;;;4985238;28;20033;-86
2021/10/01 01:18:15;;;;;;;2.47;2.28;;;6.30;99.90;;;;;;4978427;28;20041;-84
2021/10/01 01:20:48;;;;;;;4.10;2.72;;;6.30;99.90;;;;;;4989440;28;20078;-85
2021/10/01 01:23:58;;;;;;;2.80;2.15;;;6.30;99.90;;;;;;4997819;28;20034;-85
2021/10/01 01:26:48;;;;;;;2.45;2.25;;;6.30;99.90;;;;;;4996551;28;20478;-85
2021/10/01 01:29:30;;;;;;;2.72;1.92;;;6.30;99.90;;;;;;4989682;28;20138;-85
2021/10/01 01:31:56;;;;;;;5.20;2.58;;;6.30;99.90;;;;;;5012043;28;20033;-85
2021/10/01 01:34:43;;;;;;;2.95;2.22;;;6.30;99.90;;;;;;5013794;28;20022;-84
2021/10/01 01:37:18;;;;;;;2.53;2.17;;;6.30;99.90;;;;;;4977702;28;20045;-85
2021/10/01 01:39:45;;;;;;;3.17;2.30;;;6.30;99.90;;;;;;5006595;28;20025;-85
2021/10/01 01:42:13;;;;;;;5.28;2.47;;;6.30;99.90;;;;;;4997775;28;20488;-85
2021/10/01 01:44:39;;;;;;;4.95;2.70;;;6.30;99.90;;;;;;4973788;28;20089;-85
2021/10/01 01:47:06;;;;;;;4.15;2.55;;;6.30;99.90;;;;;;5014421;28;20030;-84
2021/10/01 01:49:33;;;;;;;2.92;2.40;;;6.20;99.90;;;;;;5012409;28;20061;-84
2021/10/01 01:52:02;;;;;;;2.42;2.03;;;6.20;99.90;;;;;;4996580;28;20030;-85
2021/10/01 01:54:30;;;;;;;3.25;2.40;;;6.20;99.90;;;;;;4997929;28;20037;-84
2021/10/01 01:56:57;;;;;;;2.45;2.20;;;6.20;99.90;;;;;;4995936;28;20038;-85
2021/10/01 01:59:26;;;;;;;3.53;2.38;;;6.20;99.90;;;;;;5009221;28;20424;-84
2021/10/01 02:01:53;;;;;;;2.05;1.75;;;6.20;99.90;;;;;;4991632;28;20040;-85
2021/10/01 02:04:23;;;;;;;2.80;2.10;;;6.30;99.90;;;;;;4989420;28;20027;-85
2021/10/01 02:06:51;;;;;;;3.15;2.20;;;6.30;99.90;;;;;;5003697;28;20109;-86
2021/10/01 02:09:18;;;;;;;2.08;1.90;;;6.30;99.90;;;;;;4980164;28;20515;-85
2021/10/01 02:11:46;;;;;;;2.70;1.95;;;6.30;99.90;;;;;;5004549;28;20150;-86
2021/10/01 02:14:19;;;;;;;2.22;1.90;;;6.30;99.90;;;;;;4996024;28;20030;-86
2021/10/01 02:16:48;;;;;;;2.30;2.10;;;6.30;99.90;;;;;;4982705;28;20038;-86
2021/10/01 02:19:16;;;;;;;3.63;1.98;;;6.30;99.90;;;;;;4995983;28;20049;-85
2021/10/01 02:21:43;;;;;;;2.78;1.85;;;6.30;99.90;;;;;;4976540;28;20045;-86
2021/10/01 02:24:09;;;;;;;1.70;1.60;;;6.30;99.90;;;;;;4974040;28;20451;-86
2021/10/01 02:26:49;;;;;;;2.05;1.88;;;6.30;99.90;;;;;;4991189;28;20049;-86
2021/10/01 02:29:25;;;;;;;2.47;1.90;;;6.30;99.90;;;;;;4990604;28;20028;-86
2021/10/01 02:32:10;;;;;;;2.92;2.08;;;6.20;99.90;;;;;;4994454;28;20022;-86
2021/10/01 02:34:43;;;;;;;3.63;2.20;;;6.20;99.90;;;;;;5008389;28;20027;-86
2021/10/01 02:37:18;;;;;;;2.72;1.90;;;6.20;99.90;;;;;;5009699;28;20030;-86
2021/10/01 02:39:48;;;;;;;1.58;1.48;;;6.20;99.90;;;;;;4978291;28;20108;-86
2021/10/01 02:42:16;;;;;;;2.67;2.00;;;6.20;99.90;;;;;;4999854;28;20030;-86
2021/10/01 02:44:43;;;;;;;3.67;1.98;;;6.20;99.90;;;;;;4995760;28;20022;-87
2021/10/01 02:47:09;;;;;;;2.90;2.28;;;6.10;99.90;;;;;;4995334;28;20038;-88
2021/10/01 02:49:36;;;;;;;3.83;2.10;;;6.20;99.90;;;;;;4988305;28;20036;-87
2021/10/01 02:52:14;;;;;;;2.90;1.92;;;6.10;99.90;;;;;;4978381;28;20033;-87
2021/10/01 02:54:59;;;;;;;2.30;1.92;;;6.10;99.90;;;;;;4994294;28;20030;-87
2021/10/01 02:57:29;;;;;;;2.10;1.88;;;6.10;99.90;;;;;;5011281;28;20040;-87
2021/10/01 03:00:01;;;;;;;2.88;1.88;;;6.10;99.90;;;;;;4988340;28;20068;-87
2021/10/01 03:02:27;;;;;;;5.65;1.95;;;6.10;99.90;;;;;;4994311;28;20060;-86
2021/10/01 03:04:55;;;;;;;2.72;2.42;;;6.10;99.90;;;;;;4974385;28;20033;-87
2021/10/01 03:07:23;;;;;;;2.55;2.13;;;6.10;99.90;;;;;;4978462;28;20038;-87
2021/10/01 03:09:52;;;;;;;3.78;2.22;;;6.00;99.90;;;;;;4988438;28;20116;-87
2021/10/01 03:12:19;;;;;;;2.80;2.03;;;6.00;99.90;;;;;;4978439;28;20033;-86
2021/10/01 03:14:46;;;;;;;2.22;1.73;;;6.00;99.90;;;;;;4994719;28;20026;-86
2021/10/01 03:17:12;;;;;;;2.28;1.83;;;6.00;99.90;;;;;;4994627;28;20033;-87
2021/10/01 03:19:40;;;;;;;2.28;2.00;;;6.00;99.90;;;;;;4988566;28;20521;-87
2021/10/01 03:22:06;;;;;;;2.97;2.53;;;6.00;99.90;;;;;;5010212;28;20034;-87
2021/10/01 03:24:34;;;;;;;3.80;2.10;;;5.90;99.90;;;;;;4992156;28;20029;-85
2021/10/01 03:27:00;;;;;;;2.30;2.10;;;5.90;99.90;;;;;;5007406;28;20125;-87
2021/10/01 03:29:28;;;;;;;1.85;1.67;;;5.90;99.90;;;;;;4975911;28;20022;-87
2021/10/01 03:31:53;;;;;;;2.30;2.10;;;5.90;99.90;;;;;;4990939;28;20492;-86
2021/10/01 03:34:19;;;;;;;2.03;1.92;;;5.90;99.90;;;;;;4978183;28;20033;-86
2021/10/01 03:36:49;;;;;;;2.67;2.13;;;5.80;99.90;;;;;;4995233;28;20092;-86
2021/10/01 03:39:19;;;;;;;2.08;1.80;;;5.90;99.90;;;;;;4995798;28;20064;-86
2021/10/01 03:41:46;;;;;;;2.65;1.90;;;5.80;99.90;;;;;;5004356;28;20069;-86
2021/10/01 03:44:12;;;;;;;1.95;1.85;;;5.80;99.90;;;;;;4995199;28;20034;-88
2021/10/01 03:46:38;;;;;;;2.78;2.03;;;5.80;99.90;;;;;;4983745;28;20412;-86
2021/10/01 03:49:04;;;;;;;2.33;2.13;;;5.80;99.90;;;;;;4996692;28;20392;-87
2021/10/01 03:51:30;;;;;;;1.80;1.70;;;5.80;99.90;;;;;;4979988;28;20460;-86
2021/10/01 03:53:57;;;;;;;10.02;2.20;;;5.80;99.90;;;;;;4989987;28;20404;-87
2021/10/01 03:56:23;;;;;;;1.63;1.52;;;5.80;99.90;;;;;;4982329;28;20523;-86
2021/10/01 03:58:50;;;;;;;4.53;2.00;;;5.70;99.90;;;;;;4962354;28;20189;-86
2021/10/01 04:01:17;;;;;;;1.85;1.40;;;5.70;99.90;;;;;;4984890;28;20218;-86
2021/10/01 04:03:43;;;;;;;1.52;1.42;;;5.80;99.90;;;;;;4998007;28;20030;-87
2021/10/01 04:06:09;;;;;;;1.58;1.48;;;5.70;99.90;;;;;;4997542;28;20168;-87
2021/10/01 04:08:35;;;;;;;2.45;1.83;;;5.70;99.90;;;;;;4997835;28;20512;-86
2021/10/01 04:11:02;;;;;;;3.95;1.73;;;5.70;99.90;;;;;;4991174;28;20041;-87
2021/10/01 04:13:27;;;;;;;3.75;1.90;;;5.60;99.90;;;;;;4980708;28;20049;-87
2021/10/01 04:15:53;;;;;;;2.97;2.20;;;5.60;99.90;;;;;;5010118;28;20030;-86
2021/10/01 04:18:22;;;;;;;3.78;1.80;;;5.60;99.90;;;;;;4997203;28;20036;-87
2021/10/01 04:20:48;;;;;;;2.85;2.30;;;5.60;99.90;;;;;;5011542;28;20391;-86
2021/10/01 04:23:15;;;;;;;2.67;1.88;;;5.60;99.90;;;;;;4996580;28;20018;-86
2021/10/01 04:26:04;;;;;;;3.25;2.00;;;5.60;99.90;;;;;;5013232;28;20038;-86
2021/10/01 04:28:29;;;;;;;2.25;1.95;;;5.70;99.90;;;;;;4963025;28;20093;-87
2021/10/01 04:30:59;;;;;;;2.40;1.95;;;5.70;99.90;;;;;;4979654;28;20030;-86
2021/10/01 04:33:25;;;;;;;3.55;2.10;;;5.60;99.90;;;;;;4980172;28;20117;-86
2021/10/01 04:35:55;;;;;;;2.17;1.98;;;5.70;99.90;;;;;;4997562;28;20041;-86
2021/10/01 04:38:22;;;;;;;2.33;2.00;;;5.60;99.90;;;;;;4996802;28;20030;-87
2021/10/01 04:40:49;;;;;;;3.58;1.92;;;5.60;99.90;;;;;;4990054;28;20089;-87
2021/10/01 04:43:15;;;;;;;2.08;1.70;;;5.60;99.90;;;;;;4993912;28;20125;-86
2021/10/01 04:46:10;;;;;;;2.25;1.80;;;5.60;99.90;;;;;;4997352;28;20026;-86
2021/10/01 04:48:37;;;;;;;2.03;1.83;;;5.60;99.90;;;;;;4960893;28;20034;-86
2021/10/01 04:51:03;;;;;;;3.15;2.00;;;5.60;99.90;;;;;;4984432;28;20033;-87
2021/10/01 04:53:29;;;;;;;1.98;1.80;;;5.60;99.90;;;;;;4996878;28;20030;-87
2021/10/01 04:55:54;;;;;;;1.90;1.70;;;5.70;99.90;;;;;;4992326;28;20041;-86
2021/10/01 04:58:20;;;;;;;2.42;1.80;;;5.70;99.90;;;;;;4995931;28;20488;-86
2021/10/01 05:01:06;;;;;;;;;;;5.70;99.90;;;;;;5005978;28;20034;-86
2021/10/01 05:03:52;;;;;;;1.85;1.52;;;5.70;99.90;;;;;;4999677;28;20333;-87
2021/10/01 05:06:36;;;;;;;6.38;2.05;;;5.70;99.90;;;;;;5013469;28;20034;-86
2021/10/01 05:09:20;;;;;;;2.42;1.98;;;5.60;99.90;;;;;;4997741;28;20057;-86
2021/10/01 05:12:09;;;;;;;2.45;2.15;;;5.60;99.90;;;;;;5007970;28;20500;-86
2021/10/01 05:15:08;;;;;;;2.97;2.55;;;5.60;99.90;;;;;;4982043;28;20515;-86
2021/10/01 05:17:52;;;;;;;4.47;2.25;;;5.70;99.90;;;;;;4999907;28;20564;-85
2021/10/01 05:20:36;;;;;;;4.85;2.38;;;5.70;99.90;;;;;;4995723;28;20407;-85
2021/10/01 05:23:18;;;;;;;2.15;1.80;;;5.70;99.90;;;;;;4998532;28;20125;-87
2021/10/01 05:25:44;;;;;;;1.60;1.50;;;5.70;99.90;;;;;;4995330;28;20180;-86
2021/10/01 05:28:09;;;;;;;3.25;1.40;;;5.70;99.90;;;;;;4995014;28;20038;-87
2021/10/01 05:30:35;;;;;;;3.40;2.13;;;5.70;99.90;;;;;;4976563;28;20044;-88
2021/10/01 05:33:05;;;;;;;2.75;1.95;;;5.80;99.90;;;;;;4975801;28;20202;-89
2021/10/01 05:35:33;;;;;;;2.78;2.03;;;5.80;99.90;;;;;;4995147;28;20137;-86
2021/10/01 05:37:59;;;;;;;2.45;2.08;;;5.80;99.90;;;;;;4994475;28;20512;-87
2021/10/01 05:40:25;;;;;;;4.55;2.00;;;5.80;99.90;;;;;;4991669;28;20022;-86
2021/10/01 05:42:51;;;;;;;1.75;1.65;;;5.90;99.90;;;;;;4989748;28;20134;-86
2021/10/01 05:45:17;;;;;;;2.05;1.75;;;5.90;99.90;;;;;;4961823;28;20030;-85
2021/10/01 05:48:02;;;;;;;2.20;1.70;;;6.00;99.90;;;;;;4977717;28;20041;-86
2021/10/01 05:50:52;;;;;;;4.75;2.17;;;6.00;99.90;;;;;;4992391;28;20974;-88
2021/10/01 05:56:21;;;;;;;1.90;1.75;;;6.10;99.90;;;;;;5010991;28;20044;-86
2021/10/01 05:59:06;;;;;;;1.83;1.73;;;6.10;99.90;;;;;;4981676;28;20598;-86
2021/10/01 06:01:36;;;;;;;2.88;2.17;;;6.10;99.90;;;;;;4973219;28;20022;-85
2021/10/01 06:04:02;;;;;;;2.92;2.20;;;6.20;99.90;;;;;;4994589;28;20029;-87
2021/10/01 06:06:28;;;;;;;3.15;2.03;;;6.30;99.90;;;;;;5011108;28;20017;-85
2021/10/01 06:08:54;;;;;;;4.00;2.17;;;6.40;99.90;;;;;;5010109;28;20464;-85
2021/10/01 06:11:20;;;;;;;2.78;1.90;;;6.40;99.90;;;;;;4972960;28;20041;-86
2021/10/01 06:13:46;;;;;;;2.78;2.33;;;6.50;99.90;;;;;;5014383;28;20057;-85
2021/10/01 06:16:12;;;;;;;4.32;1.92;;;6.70;99.90;;;;;;4992494;28;20034;-84
2021/10/01 06:18:37;;;;;;;2.63;2.42;;;6.90;99.90;;;;;;4992634;28;20383;-84
2021/10/01 06:21:03;;;;;;;2.47;1.90;;;7.10;99.90;;;;;;4960782;28;20121;-84
2021/10/01 06:23:34;;;;;;;2.20;2.00;;;7.30;99.90;;;;;;4968978;28;20026;-85
2021/10/01 06:26:01;;;;;;;4.38;2.05;;;7.50;99.90;;;;;;5010030;28;20528;-85
2021/10/01 06:28:27;;;;;;;2.00;1.80;;;7.80;99.90;;;;;;4960868;28;20037;-85
2021/10/01 06:30:53;;;;;;;2.40;2.03;;;8.00;99.90;;;;;;4985466;28;20030;-85
2021/10/01 06:33:18;;;;;;;1.98;1.77;;;8.30;99.90;;;;;;4974538;28;20038;-85
2021/10/01 06:35:44;;;;;;;2.58;1.52;;;8.50;99.90;;;;;;4988905;28;20077;-86
2021/10/01 06:38:11;;;;;;;2.30;1.80;;;8.70;99.90;;;;;;4961395;28;20030;-85
2021/10/01 06:40:37;;;;;;;2.00;1.58;;;8.80;99.90;;;;;;4958867;28;20454;-85
2021/10/01 06:43:07;;;;;;;1.75;1.30;;;8.90;99.90;;;;;;4990835;28;20042;-85
2021/10/01 06:45:33;;;;;;;4.05;1.40;;;9.00;99.90;;;;;;4992637;28;20033;-84
2021/10/01 08:20:35;;;;;;;1.45;0.80;;;11.50;99.90;;;;;;4997079;28;20378;-85
2021/10/01 08:23:01;;;;;;;1.42;1.30;;;11.50;99.90;;;;;;4993281;28;20095;-86
2021/10/01 08:25:27;;;;;;;1.52;0.90;;;11.40;99.90;;;;;;5012451;28;20050;-85
2021/10/01 08:27:53;;;;;;;1.60;1.23;;;11.40;99.90;;;;;;5012353;28;20065;-85
2021/10/01 08:30:18;;;;;;;3.70;1.30;;;11.50;99.90;;;;;;4991414;28;20034;-85
2021/10/01 08:32:44;;;;;;;1.65;1.25;;;11.40;99.90;;;;;;4972888;28;20062;-85
2021/10/01 08:35:11;;;;;;;1.25;1.08;;;11.50;99.90;;;;;;4992475;28;20045;-86
2021/10/01 08:37:39;;;;;;;3.03;1.60;;;11.50;99.90;;;;;;4974030;28;20041;-86
2021/10/01 08:40:06;;;;;;;4.78;1.30;;;11.50;99.90;;;;;;4990203;28;20041;-87
2021/10/01 08:42:42;;;;;;;2.17;1.30;;;11.50;99.90;;;;;;4997086;28;20069;-87
2021/10/01 08:45:13;;;;;;;1.35;1.25;;;11.60;99.90;;;;;;4976857;28;20030;-86
2021/10/01 08:47:41;;;;;;;1.33;1.23;;;11.60;99.90;;;;;;5012085;28;20100;-86
2021/10/01 08:50:08;;;;;;;1.98;1.38;;;11.70;99.90;;;;;;4992510;28;20034;-85
2021/10/01 08:52:34;;;;;;;1.77;1.10;;;11.90;99.90;;;;;;4979130;28;20041;-86
2021/10/01 08:55:00;;;;;;;1.50;1.40;;;12.00;99.90;;;;;;4981451;28;20427;-86
2021/10/01 08:57:27;;;;;;;2.17;1.45;;;12.00;99.90;;;;;;4996677;28;20026;-87
2021/10/01 08:59:53;;;;;;;2.47;1.20;;;12.00;99.90;;;;;;5006723;28;20025;-85
2021/10/01 09:02:19;;;;;;;4.35;1.40;;;12.00;99.90;;;;;;4996218;28;20026;-86
2021/10/01 09:04:45;;;;;;;4.35;1.30;;;12.10;99.90;;;;;;4993498;28;20527;-86
2021/10/01 09:07:11;;;;;;;2.25;1.30;;;12.20;99.90;;;;;;5010941;28;20073;-86
2021/10/01 09:09:45;;;;;;;2.35;1.40;;;12.20;99.90;;;;;;5013210;28;20038;-86
2021/10/01 09:12:16;;;;;;;2.75;1.20;;;12.20;99.90;;;;;;5011855;28;20109;-86
2021/10/01 09:14:44;;;;;;;4.95;1.42;;;12.30;99.90;;;;;;4995930;28;20385;-87
2021/10/01 09:17:16;;;;;;;1.92;1.30;;;12.30;99.90;;;;;;4986250;28;20038;-84
2021/10/01 09:19:42;;;;;;;3.67;1.65;;;12.40;99.90;;;;;;4993289;28;20026;-87
2021/10/01 09:22:08;;;;;;;2.20;1.17;;;12.60;99.90;;;;;;5002074;28;20030;-85
2021/10/01 09:24:41;;;;;;;2.65;1.40;;;12.60;99.90;;;;;;4972015;28;20497;-85
2021/10/01 09:27:07;;;;;;;1.63;0.95;;;12.80;99.90;;;;;;4994850;28;20072;-86
2021/10/01 09:29:35;;;;;;;2.47;1.30;;;12.90;99.90;;;;;;4989514;28;20041;-85
2021/10/01 09:32:21;;;;;;;1.15;1.05;;;13.00;99.90;;;;;;5008501;28;20355;-86
2021/10/01 09:34:48;;;;;;;2.92;0.90;;;13.10;99.90;;;;;;4994727;28;20476;-86
2021/10/01 09:37:21;;;;;;;1.55;0.95;;;13.30;99.90;;;;;;4975141;28;20108;-85
2021/10/01 09:39:54;;;;;;;2.33;1.20;;;13.40;99.90;;;;;;4956875;28;20034;-84
2021/10/01 09:42:28;;;;;;;1.40;1.00;;;13.50;99.90;;;;;;4990269;28;20563;-86
2021/10/01 09:45:01;;;;;;;1.45;0.98;;;13.60;99.90;;;;;;4970919;28;20451;-85
2021/10/01 09:47:33;;;;;;;1.85;0.90;;;13.60;99.90;;;;;;4970072;28;20125;-84
2021/10/01 09:50:05;;;;;;;1.55;1.10;;;13.60;99.90;;;;;;4991958;28;20022;-86
2021/10/01 09:52:47;;;;;;;1.27;0.90;;;13.70;99.90;;;;;;5006070;28;20462;-86
2021/10/01 09:55:16;;;;;;;1.23;1.02;;;13.80;99.90;;;;;;5006470;28;20037;-85
2021/10/01 09:58:12;;;;;;;3.05;1.10;;;13.70;99.90;;;;;;5009659;28;20026;-85
2021/10/01 10:00:46;;;;;;;0.82;0.70;;;13.70;99.90;;;;;;5007986;28;20029;-86
2021/10/01 10:03:28;;;;;;;4.15;1.10;;;13.70;99.90;;;;;;4990437;28;20097;-88
2021/10/01 10:06:10;;;;;;;2.67;0.80;;;13.80;99.90;;;;;;4991494;28;20046;-87
2021/10/01 10:08:41;;;;;;;1.52;1.02;;;13.90;99.90;;;;;;4981596;28;20062;-86
2021/10/01 10:11:10;;;;;;;3.00;0.98;;;14.00;99.90;;;;;;4989975;28;20038;-85
2021/10/01 10:13:43;;;;;;;1.15;0.80;;;14.10;99.90;;;;;;4975525;28;20038;-86
2021/10/01 10:16:17;;;;;;;0.95;0.90;;;14.10;99.90;;;;;;5008565;28;20069;-85
2021/10/01 10:18:45;;;;;;;2.08;1.00;;;14.20;99.90;;;;;;5010647;28;20038;-84
2021/10/01 10:21:11;;;;;;;2.83;0.85;;;14.30;99.90;;;;;;4974434;28;20144;-85
2021/10/01 10:23:38;;;;;;;0.70;0.60;;;14.30;99.90;;;;;;4977820;28;20029;-85
2021/10/01 10:26:04;;;;;;;2.05;0.90;;;14.40;99.90;;;;;;4993548;28;20038;-83
2021/10/01 10:28:33;;;;;;;4.00;0.90;;;14.50;99.90;;;;;;5009484;28;20519;-85
2021/10/01 10:30:59;;;;;;;1.30;0.70;;;14.40;99.90;;;;;;4987755;28;20081;-85
2021/10/01 10:33:40;;;;;;;1.58;0.68;;;14.50;99.90;;;;;;4977022;28;20763;-85
2021/10/01 10:36:36;;;;;;;4.75;0.70;;;14.60;99.90;;;;;;5005844;28;20072;-86
2021/10/01 10:39:11;;;;;;;0.70;0.70;;;14.60;99.90;;;;;;5005139;28;20069;-86
2021/10/01 10:41:38;;;;;;;3.88;0.80;;;14.70;99.90;;;;;;4984286;28;20035;-84
2021/10/01 10:44:03;;;;;;;0.68;0.63;;;14.70;99.90;;;;;;4989882;28;20053;-85
2021/10/01 10:46:35;;;;;;;1.25;0.73;;;14.80;99.90;;;;;;4991877;28;20151;-86
2021/10/01 10:49:13;;;;;;;2.15;0.70;;;14.80;99.90;;;;;;5005795;28;20026;-85
2021/10/01 10:51:57;;;;;;;2.95;0.73;;;14.80;99.90;;;;;;5007874;28;20143;-85
2021/10/01 10:54:28;;;;;;;0.90;0.50;;;14.90;99.90;;;;;;5004651;28;20033;-85
2021/10/01 10:57:21;;;;;;;1.60;0.68;;;15.00;99.90;;;;;;4977706;28;20033;-85
2021/10/01 10:59:53;;;;;;;0.85;0.60;;;15.00;99.90;;;;;;4991892;28;20030;-85
2021/10/01 11:02:24;;;;;;;1.30;0.80;;;15.00;99.90;;;;;;4993405;28;20069;-85
2021/10/01 11:04:51;;;;;;;0.77;0.60;;;15.00;99.90;;;;;;5010120;28;20518;-85
2021/10/01 11:07:56;;;;;;;1.38;0.70;;;15.10;99.90;;;;;;5009561;28;20032;-83
2021/10/01 11:10:41;;;;;;;7.28;0.98;;;15.10;99.90;;;;;;5005024;28;20109;-84
2021/10/01 11:13:22;;;;;;;4.18;0.77;;;15.10;99.90;;;;;;5010391;28;20030;-84
2021/10/01 11:16:09;;;;;;;3.60;0.88;;;15.20;99.90;;;;;;5008682;28;20045;-84
2021/10/01 11:18:47;;;;;;;3.17;0.77;;;15.30;99.90;;;;;;4991670;28;20030;-85
2021/10/01 11:21:29;;;;;;;3.80;0.60;;;15.30;99.90;;;;;;5006667;28;20018;-85
2021/10/01 11:24:11;;;;;;;2.70;0.70;;;15.30;99.90;;;;;;4992006;28;20439;-86
2021/10/01 11:26:39;;;;;;;2.42;0.93;;;15.20;99.90;;;;;;5007249;28;20025;-86
2021/10/01 11:29:23;;;;;;;2.00;0.60;;;15.30;99.90;;;;;;4975908;28;20080;-86
2021/10/01 11:31:51;;;;;;;1.38;0.70;;;15.50;99.90;;;;;;4974764;28;20033;-84
2021/10/01 11:34:17;;;;;;;1.17;0.60;;;15.40;99.90;;;;;;4991690;28;20042;-85
2021/10/01 11:36:43;;;;;;;1.60;0.70;;;15.40;99.90;;;;;;4974773;28;20113;-83
2021/10/01 11:39:14;;;;;;;0.82;0.50;;;15.40;99.90;;;;;;4985889;28;20030;-86
2021/10/01 11:41:44;;;;;;;1.40;0.50;;;15.50;99.90;;;;;;4975267;28;20578;-84
2021/10/01 11:44:13;;;;;;;0.50;0.50;;;15.50;99.90;;;;;;4991511;28;20672;-84
2021/10/01 11:46:41;;;;;;;0.43;0.38;;;15.60;99.90;;;;;;5009433;28;20032;-84
2021/10/01 11:49:17;;;;;;;1.60;0.70;;;15.80;99.90;;;;;;4989879;28;20033;-85
2021/10/01 11:52:01;;;;;;;0.50;0.50;;;15.90;99.90;;;;;;4987823;28;20030;-85
2021/10/01 11:54:27;;;;;;;2.15;0.60;;;15.90;99.90;;;;;;4986773;28;20537;-86
2021/10/01 11:57:01;;;;;;;0.40;0.40;;;15.90;99.90;;;;;;5005085;28;20041;-85
2021/10/01 12:00:03;;;;;;;1.13;0.57;;;15.90;99.90;;;;;;4976281;28;20493;-86
2021/10/01 12:02:48;;;;;;;1.23;0.57;;;15.90;99.90;;;;;;5008965;28;20481;-84
2021/10/01 12:05:17;;;;;;;0.50;0.40;;;16.10;99.90;;;;;;4993086;28;20062;-85
2021/10/01 12:07:52;;;;;;;0.50;0.50;;;16.20;99.90;;;;;;4996207;28;20061;-84
2021/10/01 12:10:20;;;;;;;0.50;0.50;;;16.20;99.90;;;;;;4993998;28;20038;-86
2021/10/01 12:13:08;;;;;;;0.98;0.60;;;16.10;99.90;;;;;;4992948;28;20045;-84
2021/10/01 12:15:49;;;;;;;1.33;0.68;;;16.10;99.90;;;;;;5009442;28;20037;-86
2021/10/01 12:18:29;;;;;;;2.00;0.60;;;16.00;99.90;;;;;;5012391;28;20037;-84
2021/10/01 12:20:59;;;;;;;0.75;0.43;;;16.00;99.90;;;;;;5009285;28;20172;-85
2021/10/01 12:23:29;;;;;;;1.13;0.50;;;16.10;99.90;;;;;;4977427;28;20057;-85
2021/10/01 12:25:55;;;;;;;2.20;0.75;;;16.20;99.90;;;;;;5011514;28;20029;-85
2021/10/01 12:28:23;;;;;;;3.22;0.45;;;16.20;99.90;;;;;;4995055;28;20116;-86
2021/10/01 12:31:02;;;;;;;0.47;0.30;;;16.30;99.90;;;;;;4993798;28;20037;-85
2021/10/01 12:33:29;;;;;;;1.63;0.60;;;16.30;99.90;;;;;;4993376;28;20116;-85
2021/10/01 12:35:55;;;;;;;0.70;0.50;;;16.30;99.90;;;;;;4990682;28;20161;-87
2021/10/01 12:38:21;;;;;;;6.45;0.93;;;16.30;99.90;;;;;;5010339;28;20182;-85
2021/10/01 12:41:09;;;;;;;8.20;0.60;;;16.30;99.90;;;;;;4992576;28;20030;-85
2021/10/01 12:43:50;;;;;;;1.27;0.52;;;16.30;99.90;;;;;;5012456;28;20097;-85
2021/10/01 12:46:37;;;;;;;1.05;0.50;;;16.30;99.90;;;;;;4997159;28;20041;-85
2021/10/01 12:49:12;;;;;;;2.25;0.50;;;16.20;99.90;;;;;;4992284;28;20087;-85
2021/10/01 12:51:38;;;;;;;0.82;0.38;;;16.20;99.90;;;;;;4994986;28;20057;-84
2021/10/01 12:54:24;;;;;;;0.43;0.38;;;16.20;99.90;;;;;;4994511;28;20076;-85
2021/10/01 12:57:08;;;;;;;1.52;0.60;;;16.20;99.90;;;;;;4992996;28;20034;-84
2021/10/01 12:59:38;;;;;;;0.80;0.50;;;16.20;99.90;;;;;;4992246;28;20094;-84
2021/10/01 13:02:13;;;;;;;0.90;0.50;;;16.20;99.90;;;;;;4971238;28;20038;-84
2021/10/01 13:05:24;;;;;;;0.68;0.50;;;16.20;99.90;;;;;;4976077;28;20031;-84
2021/10/01 13:07:52;;;;;;;1.15;0.40;;;16.30;99.90;;;;;;4985797;28;20038;-85
2021/10/01 13:10:28;;;;;;;0.88;0.50;;;16.30;99.90;;;;;;4960543;28;20095;-85
2021/10/01 13:13:01;;;;;;;0.60;0.60;;;16.30;99.90;;;;;;4990540;28;20385;-84
2021/10/01 13:15:30;;;;;;;1.77;0.40;;;16.30;99.90;;;;;;4989978;28;20084;-85
2021/10/01 13:18:21;;;;;;;0.93;0.50;;;16.30;99.90;;;;;;4959705;28;20034;-86
2021/10/01 13:20:55;;;;;;;0.68;0.50;;;16.30;99.90;;;;;;5000873;28;20034;-85
2021/10/01 13:23:42;;;;;;;1.13;0.50;;;16.30;99.90;;;;;;5026337;28;20018;-86
2021/10/01 13:26:27;;;;;;;1.77;0.50;;;16.40;99.90;;;;;;5001275;28;20030;-85
2021/10/01 13:29:00;;;;;;;2.15;0.57;;;16.30;99.90;;;;;;4988477;28;20034;-84
2021/10/01 13:31:26;;;;;;;0.57;0.50;;;16.30;99.90;;;;;;4990502;28;20033;-87
2021/10/01 13:33:54;;;;;;;2.40;0.80;;;16.20;99.90;;;;;;4991905;28;20061;-87
2021/10/01 13:36:20;;;;;;;1.08;0.60;;;16.30;99.90;;;;;;4978165;28;20069;-86
2021/10/01 13:38:47;;;;;;;1.20;0.50;;;16.30;99.90;;;;;;4992135;28;20058;-86
2021/10/01 13:41:16;;;;;;;1.40;0.50;;;16.30;99.90;;;;;;4976007;28;20036;-86
2021/10/01 13:43:42;;;;;;;1.92;0.40;;;16.30;99.90;;;;;;5005944;28;20029;-85
2021/10/01 13:46:10;;;;;;;0.50;0.50;;;16.30;99.90;;;;;;4992182;28;20034;-85
2021/10/01 13:48:36;;;;;;;0.45;0.30;;;16.30;99.90;;;;;;4991062;28;20034;-84
2021/10/01 13:51:03;;;;;;;0.40;0.40;;;16.30;99.90;;;;;;5006005;28;20104;-86
2021/10/01 13:53:29;;;;;;;0.55;0.30;;;16.20;99.90;;;;;;4990602;28;20040;-87
2021/10/01 13:55:56;;;;;;;1.63;0.47;;;16.20;99.90;;;;;;4994120;28;20119;-85
2021/10/01 13:58:22;;;;;;;0.45;0.40;;;16.20;99.90;;;;;;5010575;28;20117;-86
2021/10/01 14:00:49;;;;;;;1.27;0.50;;;16.20;99.90;;;;;;4988482;28;20149;-86
2021/10/01 14:03:16;;;;;;;0.60;0.40;;;16.10;99.90;;;;;;4992195;28;20033;-85
2021/10/01 14:05:42;;;;;;;0.75;0.50;;;16.10;99.90;;;;;;4990570;28;20026;-83
2021/10/01 14:08:07;;;;;;;0.82;0.35;;;16.10;99.90;;;;;;4988111;28;20038;-85
2021/10/01 14:10:34;;;;;;;0.60;0.40;;;16.00;99.90;;;;;;4970427;28;20496;-87
2021/10/01 14:13:01;;;;;;;0.50;0.30;;;16.10;99.90;;;;;;5006975;28;20038;-85
2021/10/01 14:15:29;;;;;;;0.52;0.50;;;16.10;99.90;;;;;;4990721;28;20034;-84
2021/10/01 14:17:55;;;;;;;1.23;0.35;;;16.00;99.90;;;;;;4989805;28;20037;-86
2021/10/01 14:20:25;;;;;;;2.95;0.70;;;16.00;99.90;;;;;;5000645;28;20113;-84
2021/10/01 14:22:51;;;;;;;2.00;0.60;;;16.00;99.90;;;;;;4989709;28;20053;-85
2021/10/01 14:25:18;;;;;;;1.65;1.20;;;16.10;99.90;;;;;;4981431;28;20038;-84
2021/10/01 14:27:45;;;;;;;1.55;0.85;;;16.10;99.90;;;;;;5006520;28;20061;-85
2021/10/01 14:30:16;;;;;;;0.30;0.30;;;16.10;99.90;;;;;;4972314;28;20050;-85
2021/10/01 14:32:42;;;;;;;0.80;0.57;;;16.10;99.90;;;;;;4991304;28;20034;-84
2021/10/01 14:35:10;;;;;;;0.70;0.50;;;16.10;99.90;;;;;;4974338;28;20125;-84
2021/10/01 14:37:37;;;;;;;0.68;0.43;;;15.90;99.90;;;;;;4999103;28;20124;-85
2021/10/01 14:40:06;;;;;;;4.28;2.35;;;15.80;99.90;;;;;;5000337;28;20638;-85
2021/10/01 14:42:32;;;;;;;1.20;1.00;;;15.70;99.90;;;;;;4988566;28;20120;-85
2021/10/01 14:44:57;;;;;;;0.88;0.77;;;15.60;99.90;;;;;;4990715;28;20026;-86
2021/10/01 14:47:29;;;;;;;0.50;0.50;;;15.60;99.90;;;;;;4973265;28;20682;-85
2021/10/01 14:50:00;;;;;;;2.75;0.60;;;15.50;99.90;;;;;;4957180;28;20480;-87